Time;durP1;ratioP1;P1;durP2;ratioP2;P2;SDS_P1;SDS_P2;PMS_P1;PMS_P2;Temp;Humidity;BMP_temperature;BMP_pressure;BME280_temperature;BME280_humidity;BME280_pressure;Samples;Min_cycle;Max_cycle;Signal;HPM_P1;HPM_P2
2022/07/07 00:01:35;;;;;;;;;;;;;;;;;;5011154;28;19932;-94
2022/07/07 00:04:02;;;;;;;;;;;;;;;;;;5008151;28;19906;-94
2022/07/07 00:06:27;;;;;;;;;;;;;;;;;;5010998;28;19925;-94
2022/07/07 00:08:54;;;;;;;;;;;;;;;;;;5008277;28;19936;-94
2022/07/07 00:11:19;;;;;;;;;;;;;;;;;;5017259;28;19979;-94
2022/07/07 00:13:44;;;;;;;;;;;;;;;;;;5015740;28;19913;-93
2022/07/07 00:16:10;;;;;;;;;;;;;;;;;;4998681;28;19945;-93
2022/07/07 00:18:35;;;;;;;;;;;;;;;;;;5014478;28;19936;-94
2022/07/07 00:21:00;;;;;;;;;;;;;;;;;;4997168;28;19905;-92
2022/07/07 00:23:25;;;;;;;;;;;;;;;;;;5000426;28;19905;-93
2022/07/07 00:25:50;;;;;;;;;;;;;;;;;;5009460;28;19906;-93
2022/07/07 00:28:16;;;;;;;;;;;;;;;;;;5027875;28;19932;-93
2022/07/07 00:30:42;;;;;;;;;;;;;;;;;;5014040;28;19948;-94
2022/07/07 00:33:07;;;;;;;;;;;;;;;;;;5022222;28;20344;-94
2022/07/07 00:35:32;;;;;;;;;;;;;;;;;;5005396;28;19906;-94
2022/07/07 00:37:57;;;;;;;;;;;;;;;;;;5007382;28;19906;-93
2022/07/07 00:40:22;;;;;;;;;;;;;;;;;;5010157;28;19909;-94
2022/07/07 00:42:48;;;;;;;;;;;;;;;;;;5019828;28;19912;-95
2022/07/07 00:45:13;;;;;;;;;;;;;;;;;;5019941;28;19906;-94
2022/07/07 00:47:40;;;;;;;;;;;;;;;;;;5020479;28;19916;-94
2022/07/07 00:50:05;;;;;;;;;;;;;;;;;;5015044;28;20397;-92
2022/07/07 00:52:30;;;;;;;;;;;;;;;;;;5003712;28;19932;-93
2022/07/07 00:54:56;;;;;;;;;;;;;;;;;;5005249;28;19905;-93
2022/07/07 00:57:21;;;;;;;;;;;;;;;;;;5024345;28;19913;-94
2022/07/07 00:59:46;;;;;;;;;;;;;;;;;;5009058;28;19917;-93
2022/07/07 01:02:11;;;;;;;;;;;;;;;;;;5021053;28;20365;-91
2022/07/07 01:04:36;;;;;;;;;;;;;;;;;;5005122;28;20008;-94
2022/07/07 01:07:01;;;;;;;;;;;;;;;;;;5020019;28;19918;-91
2022/07/07 01:09:26;;;;;;;;;;;;;;;;;;5001866;28;19912;-95
2022/07/07 01:11:52;;;;;;;;;;;;;;;;;;5009644;28;19905;-93
2022/07/07 01:14:17;;;;;;;;;;;;;;;;;;5017261;28;19912;-93
2022/07/07 01:16:42;;;;;;;;;;;;;;;;;;5028630;28;19905;-94
2022/07/07 01:19:07;;;;;;;;;;;;;;;;;;5004984;28;19917;-93
2022/07/07 01:21:32;;;;;;;;;;;;;;;;;;5023102;28;19905;-95
2022/07/07 01:23:58;;;;;;;;;;;;;;;;;;5009440;28;19963;-93
2022/07/07 01:26:23;;;;;;;;;;;;;;;;;;5009860;28;19913;-94
2022/07/07 01:28:48;;;;;;;;;;;;;;;;;;5007800;28;20296;-93
2022/07/07 01:31:13;;;;;;;;;;;;;;;;;;5012807;28;19992;-94
2022/07/07 01:33:38;;;;;;;;;;;;;;;;;;5011927;28;19981;-93
2022/07/07 01:36:04;;;;;;;;;;;;;;;;;;5001367;28;19972;-93
2022/07/07 01:38:29;;;;;;;;;;;;;;;;;;5013365;28;19898;-92
2022/07/07 01:40:54;;;;;;;;;;;;;;;;;;5014080;28;19964;-93
2022/07/07 01:43:19;;;;;;;;;;;;;;;;;;5019971;28;19889;-94
2022/07/07 01:45:44;;;;;;;;;;;;;;;;;;5364077;22;19928;-91
2022/07/07 01:48:09;;;;;;;;;;;;;;;;;;5050196;28;19912;-93
2022/07/07 01:50:35;;;;;;;;;;;;;;;;;;5054506;28;19912;-95
2022/07/07 01:53:00;;;;;;;;;;;;;;;;;;5047225;28;19948;-94
2022/07/07 01:55:25;;;;;;;;;;;;;;;;;;5052064;28;19911;-93
2022/07/07 01:57:50;;;;;;;;;;;;;;;;;;5051690;28;20066;-94
2022/07/07 02:00:16;;;;;;;;;;;;;;;;;;5375451;22;20689;-96
2022/07/07 02:02:41;;;;;;;;;;;;;;;;;;5053468;28;19948;-94
2022/07/07 02:05:06;;;;;;;;;;;;;;;;;;5054824;28;19916;-93
2022/07/07 02:07:31;;;;;;;;;;;;;;;;;;5050828;28;19941;-93
2022/07/07 02:09:56;;;;;;;;;;;;;;;;;;5048090;28;19944;-94
2022/07/07 02:12:21;;;;;;;;;;;;;;;;;;5039236;28;19952;-94
2022/07/07 02:14:47;;;;;;;;;;;;;;;;;;5042182;28;19995;-92
2022/07/07 02:17:12;;;;;;;;;;;;;;;;;;5034441;28;20000;-93
2022/07/07 02:19:37;;;;;;;;;;;;;;;;;;5018606;28;19909;-93
2022/07/07 02:22:02;;;;;;;;;;;;;;;;;;5027113;28;19980;-93
2022/07/07 02:24:27;;;;;;;;;;;;;;;;;;5031840;28;19905;-92
2022/07/07 02:26:53;;;;;;;;;;;;;;;;;;5032889;28;19908;-94
2022/07/07 02:29:18;;;;;;;;;;;;;;;;;;5049071;28;19905;-95
2022/07/07 02:31:43;;;;;;;;;;;;;;;;;;5032412;28;19913;-94
2022/07/07 02:34:08;;;;;;;;;;;;;;;;;;5046777;28;19929;-95
2022/07/07 02:36:33;;;;;;;;;;;;;;;;;;5041538;28;19905;-94
2022/07/07 02:38:59;;;;;;;;;;;;;;;;;;5027839;28;19893;-91
2022/07/07 02:41:24;;;;;;;;;;;;;;;;;;5051743;28;19943;-95
2022/07/07 02:43:49;;;;;;;;;;;;;;;;;;5045729;28;19912;-92
2022/07/07 02:46:14;;;;;;;;;;;;;;;;;;5031411;28;19912;-94
2022/07/07 02:48:39;;;;;;;;;;;;;;;;;;5027770;28;19938;-93
2022/07/07 02:51:04;;;;;;;;;;;;;;;;;;5036773;28;19905;-91
2022/07/07 02:53:30;;;;;;;;;;;;;;;;;;5036759;28;19905;-91
2022/07/07 02:55:55;;;;;;;;;;;;;;;;;;5037513;28;19912;-92
2022/07/07 02:58:22;;;;;;;;;;;;;;;;;;5045556;28;19996;-93
2022/07/07 03:00:48;;;;;;;;;;;;;;;;;;5016123;28;19924;-93
2022/07/07 03:03:13;;;;;;;;;;;;;;;;;;5046555;28;19910;-93
2022/07/07 03:05:38;;;;;;;;;;;;;;;;;;5043346;28;19980;-93
2022/07/07 03:08:03;;;;;;;;;;;;;;;;;;5041769;28;20300;-93
2022/07/07 03:10:28;;;;;;;;;;;;;;;;;;5039790;28;19964;-93
2022/07/07 03:12:54;;;;;;;;;;;;;;;;;;5040769;28;19905;-92
2022/07/07 03:15:19;;;;;;;;;;;;;;;;;;5049396;28;19986;-93
2022/07/07 03:17:44;;;;;;;;;;;;;;;;;;5018726;28;19971;-92
2022/07/07 03:20:10;;;;;;;;;;;;;;;;;;5034381;28;20361;-92
2022/07/07 03:22:35;;;;;;;;;;;;;;;;;;5037864;28;19905;-93
2022/07/07 03:25:00;;;;;;;;;;;;;;;;;;5034048;28;20387;-91
2022/07/07 03:27:25;;;;;;;;;;;;;;;;;;5035417;28;19909;-94
2022/07/07 03:29:50;;;;;;;;;;;;;;;;;;5049961;28;19905;-93
2022/07/07 03:32:15;;;;;;;;;;;;;;;;;;5249687;22;19921;-93
2022/07/07 03:34:41;;;;;;;;;;;;;;;;;;5215028;22;19921;-94
2022/07/07 03:37:06;;;;;;;;;;;;;;;;;;5057211;22;19925;-91
2022/07/07 03:39:31;;;;;;;;;;;;;;;;;;5016986;28;19908;-93
2022/07/07 03:41:56;;;;;;;;;;;;;;;;;;5014610;28;20008;-94
2022/07/07 03:44:21;;;;;;;;;;;;;;;;;;5005576;28;19987;-94
2022/07/07 03:46:46;;;;;;;;;;;;;;;;;;5008105;28;19909;-94
2022/07/07 03:49:12;;;;;;;;;;;;;;;;;;4997629;28;19906;-93
2022/07/07 03:51:37;;;;;;;;;;;;;;;;;;4997239;28;19905;-93
2022/07/07 03:54:02;;;;;;;;;;;;;;;;;;4995969;28;19906;-91
2022/07/07 03:56:27;;;;;;;;;;;;;;;;;;5010202;28;19905;-94
2022/07/07 03:58:52;;;;;;;;;;;;;;;;;;4990647;28;19909;-95
2022/07/07 04:01:17;;;;;;;;;;;;;;;;;;4985635;28;20364;-93
2022/07/07 04:03:43;;;;;;;;;;;;;;;;;;5000210;28;19937;-94
2022/07/07 04:06:11;;;;;;;;;;;;;;;;;;5017916;28;19953;-93
2022/07/07 04:08:36;;;;;;;;;;;;;;;;;;4987075;28;19913;-92
2022/07/07 04:11:01;;;;;;;;;;;;;;;;;;4999475;28;19914;-94
2022/07/07 04:13:26;;;;;;;;;;;;;;;;;;5137728;23;19925;-91
2022/07/07 04:15:51;;;;;;;;;;;;;;;;;;4998442;28;19964;-91
2022/07/07 04:18:16;;;;;;;;;;;;;;;;;;5004318;28;19913;-91
2022/07/07 04:20:42;;;;;;;;;;;;;;;;;;5017637;28;20340;-86
2022/07/07 04:23:07;;;;;;;;;;;;;;;;;;5015240;28;19948;-88
2022/07/07 04:25:32;;;;;;;;;;;;;;;;;;5003137;28;20270;-87
2022/07/07 04:27:57;;;;;;;;;;;;;;;;;;5015498;28;20339;-86
2022/07/07 04:30:22;;;;;;;;;;;;;;;;;;4996004;28;19916;-87
2022/07/07 04:32:48;;;;;;;;;;;;;;;;;;4995492;28;19909;-87
2022/07/07 04:35:14;;;;;;;;;;;;;;;;;;5013403;28;19906;-87
2022/07/07 04:37:39;;;;;;;;;;;;;;;;;;4998334;28;20046;-87
2022/07/07 04:40:04;;;;;;;;;;;;;;;;;;5028052;28;19932;-86
